createdAt,value
2022-12-25T00:01:20.991Z,101594.63
2022-12-25T00:03:47.828Z,101596.81
2022-12-25T00:06:14.829Z,101600.94
2022-12-25T00:08:42.325Z,101599.03
2022-12-25T00:11:15.226Z,101594.63
2022-12-25T00:13:42.009Z,101595.16
2022-12-25T00:16:16.128Z,101595.16
2022-12-25T00:18:42.776Z,101592.53
2022-12-25T00:21:10.910Z,101588.94
2022-12-25T00:23:37.485Z,101587.84
2022-12-25T00:26:06.463Z,101579.19
2022-12-25T00:28:33.180Z,101587.41
2022-12-25T00:30:59.800Z,101588.66
2022-12-25T00:33:26.470Z,101589.16
2022-12-25T00:36:00.558Z,101583.66
2022-12-25T00:38:27.705Z,101582.00
2022-12-25T00:40:54.631Z,101582.81
2022-12-25T00:43:21.289Z,101580.91
2022-12-25T00:45:59.280Z,101576.19
2022-12-25T00:48:27.232Z,101581.00
2022-12-25T00:50:56.010Z,101593.13
2022-12-25T00:53:23.866Z,101589.22
2022-12-25T00:56:00.929Z,101581.09
2022-12-25T00:58:29.792Z,101585.22
2022-12-25T01:00:56.791Z,101586.03
2022-12-25T01:03:24.557Z,101597.06
2022-12-25T01:05:56.941Z,101593.47
2022-12-25T01:08:23.613Z,101584.78
2022-12-25T01:10:54.681Z,101586.59
2022-12-25T01:13:21.668Z,101587.28
2022-12-25T01:15:48.379Z,101598.56
2022-12-25T01:18:14.939Z,101599.22
2022-12-25T01:20:42.317Z,101607.63
2022-12-25T01:23:08.805Z,101603.22
2022-12-25T01:25:35.378Z,101605.00
2022-12-25T01:28:01.939Z,101610.25
2022-12-25T01:30:28.584Z,101606.81
2022-12-25T01:32:55.013Z,101608.16
2022-12-25T01:35:21.596Z,101614.09
2022-12-25T01:37:48.153Z,101611.19
2022-12-25T01:40:14.658Z,101614.47
2022-12-25T01:42:41.093Z,101610.06
2022-12-25T01:45:43.598Z,101600.41
2022-12-25T01:48:16.697Z,101601.53
2022-12-25T01:50:47.029Z,101598.75
2022-12-25T01:53:13.878Z,101592.16
2022-12-25T01:55:43.867Z,101591.63
2022-12-25T01:58:10.488Z,101605.00
2022-12-25T02:00:37.015Z,101608.44
2022-12-25T02:03:04.006Z,101608.44
2022-12-25T02:05:33.385Z,101608.59
2022-12-25T02:08:04.471Z,101608.06
2022-12-25T02:10:31.068Z,101608.34
2022-12-25T02:12:58.277Z,101608.78
2022-12-25T02:15:34.169Z,101598.75
2022-12-25T02:18:08.984Z,101595.72
2022-12-25T02:21:03.238Z,101596.72
2022-12-25T02:23:56.323Z,101608.44
2022-12-25T02:26:41.814Z,101601.41
2022-12-25T02:29:27.178Z,101588.47
2022-12-25T02:32:14.384Z,101596.44
2022-12-25T02:34:45.330Z,101591.50
2022-12-25T02:37:37.093Z,101597.56
2022-12-25T02:40:32.895Z,101606.38
2022-12-25T02:43:21.169Z,101604.59
2022-12-25T02:46:15.838Z,101605.28
2022-12-25T02:49:06.722Z,101598.53
2022-12-25T02:51:55.645Z,101595.91
2022-12-25T02:54:47.093Z,101589.03
2022-12-25T02:57:35.910Z,101582.16
2022-12-25T03:00:23.732Z,101581.03
2022-12-25T03:03:11.719Z,101579.22
2022-12-25T03:05:59.536Z,101575.38
2022-12-25T03:08:32.494Z,101557.59
2022-12-25T03:11:24.434Z,101551.75
2022-12-25T03:14:17.799Z,101552.56
2022-12-25T03:16:53.708Z,101538.28
2022-12-25T03:19:43.015Z,101538.41
2022-12-25T03:22:33.781Z,101538.41
2022-12-25T03:25:19.257Z,101538.66
2022-12-25T03:27:49.112Z,101529.25
2022-12-25T03:30:34.448Z,101539.81
2022-12-25T03:34:01.126Z,101537.88
2022-12-25T03:36:39.057Z,101533.84
2022-12-25T03:39:47.207Z,101536.16
2022-12-25T03:42:37.469Z,101549.66
2022-12-25T03:45:29.722Z,101535.59
2022-12-25T03:48:09.600Z,101543.28
2022-12-25T03:51:00.353Z,101550.19
2022-12-25T03:54:14.976Z,101546.44
2022-12-25T03:57:01.968Z,101547.78
2022-12-25T03:59:47.026Z,101553.19
2022-12-25T04:02:31.990Z,101544.22
2022-12-25T04:05:17.260Z,101538.00
2022-12-25T04:08:02.232Z,101525.72
2022-12-25T04:10:47.724Z,101528.78
2022-12-25T04:13:33.875Z,101524.44
2022-12-25T04:16:19.498Z,101517.19
2022-12-25T04:19:04.715Z,101521.19
2022-12-25T04:21:49.787Z,101525.38
2022-12-25T04:24:34.699Z,101523.56
2022-12-25T04:27:19.539Z,101532.41
2022-12-25T04:30:04.465Z,101536.00
2022-12-25T04:32:49.544Z,101544.84
2022-12-25T04:35:34.992Z,101544.00
2022-12-25T04:38:01.999Z,101556.78
2022-12-25T04:40:28.614Z,101534.38
2022-12-25T04:42:55.062Z,101531.88
2022-12-25T04:45:21.536Z,101527.75
2022-12-25T04:47:48.176Z,101540.31
2022-12-25T04:50:14.683Z,101536.34
2022-12-25T04:52:42.325Z,101533.88
2022-12-25T04:55:10.929Z,101530.44
2022-12-25T04:57:38.042Z,101534.97
2022-12-25T05:00:06.081Z,101527.28
2022-12-25T05:02:32.834Z,101531.69
2022-12-25T05:04:59.521Z,101510.47
2022-12-25T05:07:26.023Z,101509.78
2022-12-25T05:09:52.730Z,101507.44
2022-12-25T05:12:19.322Z,101521.50
2022-12-25T05:14:45.859Z,101520.81
2022-12-25T05:17:12.431Z,101520.16
2022-12-25T05:19:39.059Z,101513.25
2022-12-25T05:22:05.671Z,101497.03
2022-12-25T05:24:32.249Z,101489.47
2022-12-25T05:26:58.728Z,101491.13
2022-12-25T05:29:25.315Z,101491.13
2022-12-25T05:31:51.933Z,101491.13
2022-12-25T05:34:18.572Z,101490.41
2022-12-25T05:36:45.111Z,101482.56
2022-12-25T05:39:11.579Z,101473.38
2022-12-25T05:41:38.079Z,101473.53
2022-12-25T05:44:04.719Z,101475.16
2022-12-25T05:46:31.305Z,101472.53
2022-12-25T05:48:57.860Z,101470.75
2022-12-25T05:51:26.079Z,101475.84
2022-12-25T05:53:52.637Z,101479.28
2022-12-25T05:56:19.136Z,101477.66
2022-12-25T05:58:45.706Z,101477.66
2022-12-25T06:01:16.939Z,101477.66
2022-12-25T06:03:43.833Z,101489.75
2022-12-25T06:06:11.581Z,101481.63
2022-12-25T06:08:38.198Z,101477.75
2022-12-25T06:11:09.365Z,101474.97
2022-12-25T06:13:36.192Z,101473.84
2022-12-25T06:16:08.962Z,101457.16
2022-12-25T06:18:41.004Z,101454.44
2022-12-25T06:21:09.297Z,101450.53
2022-12-25T06:23:36.723Z,101452.19
2022-12-25T06:26:06.252Z,101453.97
2022-12-25T06:28:32.804Z,101456.59
2022-12-25T06:30:59.401Z,101462.94
2022-12-25T06:33:25.941Z,101454.78
2022-12-25T06:35:52.495Z,101452.72
2022-12-25T06:38:19.023Z,101460.41
2022-12-25T06:40:45.762Z,101453.78
2022-12-25T06:43:12.282Z,101448.91
2022-12-25T06:45:38.848Z,101445.00
2022-12-25T06:48:05.672Z,101436.84
2022-12-25T06:50:32.263Z,101440.97
2022-12-25T06:52:58.717Z,101438.06
2022-12-25T06:55:25.205Z,101447.13
2022-12-25T06:57:51.728Z,101435.88
2022-12-25T07:00:18.451Z,101436.56
2022-12-25T07:02:48.449Z,101427.72
2022-12-25T07:05:15.065Z,101419.88
2022-12-25T07:07:41.584Z,101415.16
2022-12-25T07:10:08.770Z,101414.84
2022-12-25T07:12:35.325Z,101428.78
2022-12-25T07:15:01.796Z,101430.41
2022-12-25T07:17:28.390Z,101429.47
2022-12-25T07:19:56.581Z,101427.66
2022-12-25T07:22:23.087Z,101429.28
2022-12-25T07:24:49.561Z,101437.16
2022-12-25T07:27:16.093Z,101452.75
2022-12-25T07:29:42.614Z,101442.25
2022-12-25T07:32:09.408Z,101442.25
2022-12-25T07:34:35.924Z,101450.94
2022-12-25T07:37:02.618Z,101448.97
2022-12-25T07:39:29.255Z,101447.16
2022-12-25T07:41:55.795Z,101446.22
2022-12-25T07:44:22.337Z,101445.25
2022-12-25T07:46:48.888Z,101448.84
2022-12-25T07:49:15.455Z,101456.53
2022-12-25T07:51:43.412Z,101459.31
2022-12-25T07:54:09.974Z,101471.44
2022-12-25T07:56:36.542Z,101459.00
2022-12-25T07:59:03.290Z,101459.84
2022-12-25T08:01:30.448Z,101449.38
2022-12-25T08:03:59.792Z,101450.84
2022-12-25T08:06:32.930Z,101459.38
2022-12-25T08:09:07.066Z,101464.63
2022-12-25T08:11:33.932Z,101460.19
2022-12-25T08:14:00.529Z,101465.97
2022-12-25T08:16:27.118Z,101476.28
2022-12-25T08:18:53.679Z,101484.00
2022-12-25T08:21:20.265Z,101486.47
2022-12-25T08:23:48.332Z,101489.09
2022-12-25T08:26:18.125Z,101491.59
2022-12-25T08:28:45.334Z,101488.97
2022-12-25T08:31:29.358Z,101486.19
2022-12-25T08:33:58.312Z,101485.19
2022-12-25T08:36:25.228Z,101482.28
2022-12-25T08:38:54.584Z,101476.38
2022-12-25T08:41:25.208Z,101476.38
2022-12-25T08:43:51.708Z,101481.44
2022-12-25T08:46:18.417Z,101458.69
2022-12-25T08:48:48.680Z,101461.97
2022-12-25T08:51:19.060Z,101446.91
2022-12-25T08:53:47.373Z,101443.34
2022-12-25T08:56:15.215Z,101439.72
2022-12-25T08:58:43.269Z,101448.25
2022-12-25T09:01:10.199Z,101452.53
2022-12-25T09:03:36.952Z,101443.84
2022-12-25T09:06:08.381Z,101438.44
2022-12-25T09:08:35.856Z,101449.56
2022-12-25T09:11:09.055Z,101452.06
2022-12-25T09:13:36.910Z,101438.94
2022-12-25T09:16:12.668Z,101444.19
2022-12-25T09:18:39.356Z,101450.94
2022-12-25T09:21:10.568Z,101460.44
2022-12-25T09:23:37.118Z,101465.53
2022-12-25T09:26:05.540Z,101457.66
2022-12-25T09:28:32.297Z,101459.31
2022-12-25T09:30:59.460Z,101452.13
2022-12-25T09:33:26.090Z,101469.66
2022-12-25T09:35:57.418Z,101465.22
2022-12-25T09:38:24.487Z,101475.41
2022-12-25T09:41:12.855Z,101483.09
2022-12-25T09:43:45.468Z,101479.53
2022-12-25T09:46:17.058Z,101465.25
2022-12-25T09:48:55.210Z,101456.44
2022-12-25T09:51:23.780Z,101457.91
2022-12-25T09:54:09.308Z,101464.81
2022-12-25T09:56:36.947Z,101443.38
2022-12-25T09:59:03.745Z,101460.59
2022-12-25T10:01:49.223Z,101459.44
2022-12-25T10:04:27.587Z,101442.06
2022-12-25T10:06:57.033Z,101436.84
2022-12-25T10:09:56.667Z,101433.38
2022-12-25T10:12:55.364Z,101444.69
2022-12-25T10:15:48.064Z,101444.03
2022-12-25T10:18:33.775Z,101437.94
2022-12-25T10:21:03.949Z,101430.91
2022-12-25T10:23:55.708Z,101427.31
2022-12-25T10:26:25.437Z,101425.53
2022-12-25T10:29:15.032Z,101427.97
2022-12-25T10:31:47.013Z,101416.66
2022-12-25T10:34:14.786Z,101422.59
2022-12-25T10:36:43.729Z,101415.53
2022-12-25T10:39:17.389Z,101412.91
2022-12-25T10:42:05.060Z,101411.75
2022-12-25T10:44:33.240Z,101409.13
2022-12-25T10:47:01.663Z,101409.13
2022-12-25T10:49:32.858Z,101386.19
2022-12-25T10:52:00.172Z,101410.63
2022-12-25T10:54:28.212Z,101392.44
2022-12-25T10:57:14.649Z,101379.00
2022-12-25T10:59:58.991Z,101376.22
2022-12-25T11:02:34.452Z,101368.34
2022-12-25T11:05:03.203Z,101359.47
2022-12-25T11:07:31.132Z,101358.34
2022-12-25T11:10:05.731Z,101355.56
2022-12-25T11:12:42.004Z,101348.34
2022-12-25T11:15:32.248Z,101342.78
2022-12-25T11:17:58.843Z,101337.69
2022-12-25T11:20:25.802Z,101332.59
2022-12-25T11:22:52.645Z,101331.63
2022-12-25T11:25:26.155Z,101323.91
2022-12-25T11:28:05.828Z,101316.19
2022-12-25T11:30:34.638Z,101317.69
2022-12-25T11:33:04.985Z,101315.72
2022-12-25T11:35:37.332Z,101303.13
2022-12-25T11:38:04.026Z,101292.44
2022-12-25T11:40:36.754Z,101287.69
2022-12-25T11:43:12.678Z,101283.94
2022-12-25T11:45:45.490Z,101265.91
2022-12-25T11:48:18.009Z,101265.59
2022-12-25T11:50:55.680Z,101271.16
2022-12-25T11:53:30.600Z,101273.97
2022-12-25T11:56:01.953Z,101256.25
2022-12-25T11:58:53.019Z,101273.63
2022-12-25T12:01:19.669Z,101276.28
2022-12-25T12:03:46.422Z,101272.66
2022-12-25T12:06:38.107Z,101286.78
2022-12-25T12:09:31.825Z,101285.28
2022-12-25T12:12:07.547Z,101268.22
2022-12-25T12:14:52.851Z,101287.59
2022-12-25T12:17:20.041Z,101286.78
2022-12-25T12:19:46.614Z,101271.66
2022-12-25T12:22:39.726Z,101264.44
2022-12-25T12:25:07.983Z,101254.09
2022-12-25T12:27:42.973Z,101266.41
2022-12-25T12:30:27.129Z,101248.84
2022-12-25T12:32:58.666Z,101248.03
2022-12-25T12:35:39.953Z,101247.06
2022-12-25T12:38:12.855Z,101240.97
2022-12-25T12:40:41.200Z,101241.81
2022-12-25T12:43:23.925Z,101221.78
2022-12-25T12:45:57.055Z,101220.97
2022-12-25T12:48:29.176Z,101223.59
2022-12-25T12:51:07.160Z,101227.22
2022-12-25T12:53:35.101Z,101236.88
2022-12-25T12:56:28.258Z,101232.78
2022-12-25T12:58:54.767Z,101238.84
2022-12-25T13:01:27.342Z,101239.84
2022-12-25T13:04:21.010Z,101230.47
2022-12-25T13:06:51.382Z,101225.22
2022-12-25T13:09:17.867Z,101222.59
2022-12-25T13:11:45.127Z,101209.66
2022-12-25T13:14:20.606Z,101203.59
2022-12-25T13:16:49.892Z,101198.47
2022-12-25T13:19:22.262Z,101193.38
2022-12-25T13:22:01.075Z,101192.56
2022-12-25T13:24:33.113Z,101190.09
2022-12-25T13:27:00.308Z,101191.75
2022-12-25T13:29:31.565Z,101189.13
2022-12-25T13:31:59.505Z,101187.16
2022-12-25T13:34:41.587Z,101186.34
2022-12-25T13:37:13.229Z,101172.38
2022-12-25T13:39:57.415Z,101176.97
2022-12-25T13:42:27.427Z,101176.97
2022-12-25T13:45:07.768Z,101163.03
2022-12-25T13:47:40.767Z,101152.84
2022-12-25T13:50:22.548Z,101163.34
2022-12-25T13:52:49.601Z,101174.84
2022-12-25T13:55:24.725Z,101179.91
2022-12-25T13:58:17.203Z,101178.13
2022-12-25T14:00:49.739Z,101165.16
2022-12-25T14:03:23.569Z,101167.16
2022-12-25T14:06:02.241Z,101157.47
2022-12-25T14:08:32.106Z,101159.28
2022-12-25T14:11:03.674Z,101157.47
2022-12-25T14:13:33.127Z,101155.81
2022-12-25T14:16:00.698Z,101154.84
2022-12-25T14:18:28.267Z,101165.16
2022-12-25T14:21:16.821Z,101170.41
2022-12-25T14:23:46.887Z,101169.59
2022-12-25T14:26:39.768Z,101180.09
2022-12-25T14:29:09.235Z,101161.72
2022-12-25T14:31:42.473Z,101165.97
2022-12-25T14:34:20.695Z,101158.91
2022-12-25T14:36:48.694Z,101156.28
2022-12-25T14:39:35.740Z,101165.00
2022-12-25T14:42:13.756Z,101150.06
2022-12-25T14:44:41.322Z,101141.38
2022-12-25T14:47:10.801Z,101140.53
2022-12-25T14:49:37.775Z,101130.03
2022-12-25T14:52:21.106Z,101135.28
2022-12-25T14:55:02.818Z,101132.66
2022-12-25T14:57:37.690Z,101145.16
2022-12-25T15:00:23.882Z,101151.22
2022-12-25T15:02:52.942Z,101144.84
2022-12-25T15:05:38.297Z,101139.59
2022-12-25T15:08:13.827Z,101150.06
2022-12-25T15:13:29.325Z,101157.94
2022-12-25T15:16:02.485Z,101143.84
2022-12-25T15:18:34.378Z,101139.72
2022-12-25T15:21:00.940Z,101158.09
2022-12-25T15:23:27.534Z,101161.53
2022-12-25T15:25:54.130Z,101160.56
2022-12-25T15:28:20.874Z,101147.44
2022-12-25T15:30:47.802Z,101149.09
2022-12-25T15:33:16.195Z,101150.06
2022-12-25T15:35:44.312Z,101149.25
2022-12-25T15:38:12.689Z,101144.16
2022-12-25T15:40:40.214Z,101151.03
2022-12-25T15:43:20.906Z,101149.41
2022-12-25T15:45:54.035Z,101136.28
2022-12-25T15:48:20.639Z,101133.84
2022-12-25T15:50:47.210Z,101126.78
2022-12-25T15:53:14.179Z,101131.03
2022-12-25T15:55:40.979Z,101130.22
2022-12-25T15:58:15.221Z,101127.78
2022-12-25T16:00:41.774Z,101130.56
2022-12-25T16:03:08.398Z,101116.78
2022-12-25T16:05:35.339Z,101115.31
2022-12-25T16:08:01.889Z,101100.88
2022-12-25T16:10:32.143Z,101103.84
2022-12-25T16:13:01.526Z,101116.78
2022-12-25T16:15:27.983Z,101118.25
2022-12-25T16:17:54.597Z,101121.53
2022-12-25T16:20:21.182Z,101119.75
2022-12-25T16:22:47.737Z,101127.44
2022-12-25T16:25:16.819Z,101132.69
2022-12-25T16:27:44.015Z,101135.16
2022-12-25T16:30:13.675Z,101136.94
2022-12-25T16:32:42.355Z,101126.28
2022-12-25T16:35:11.096Z,101118.41
2022-12-25T16:37:38.155Z,101114.00
2022-12-25T16:40:05.503Z,101113.31
2022-12-25T16:42:32.057Z,101106.28
2022-12-25T16:44:58.580Z,101102.00
2022-12-25T16:47:25.830Z,101086.25
2022-12-25T16:49:52.418Z,101081.19
2022-12-25T16:52:18.975Z,101083.97
2022-12-25T16:54:46.810Z,101104.00
2022-12-25T16:57:14.602Z,101088.06
2022-12-25T16:59:41.653Z,101102.00
2022-12-25T17:02:14.412Z,101099.25
2022-12-25T17:04:41.053Z,101100.06
2022-12-25T17:07:07.540Z,101094.00
2022-12-25T17:09:37.483Z,101086.13
2022-12-25T17:12:07.928Z,101091.50
2022-12-25T17:14:35.125Z,101096.94
2022-12-25T17:17:02.531Z,101093.50
2022-12-25T17:19:29.355Z,101082.34
2022-12-25T17:21:56.028Z,101083.31
2022-12-25T17:24:22.664Z,101095.63
2022-12-25T17:26:49.189Z,101098.09
2022-12-25T17:29:21.675Z,101097.25
2022-12-25T17:31:48.812Z,101092.84
2022-12-25T17:34:15.438Z,101099.72
2022-12-25T17:36:42.049Z,101087.44
2022-12-25T17:39:10.678Z,101096.94
2022-12-25T17:41:37.219Z,101088.06
2022-12-25T17:44:03.921Z,101090.69
2022-12-25T17:46:31.203Z,101092.31
2022-12-25T17:49:00.098Z,101098.56
2022-12-25T17:51:31.215Z,101103.19
2022-12-25T17:54:04.513Z,101102.19
2022-12-25T17:56:32.493Z,101100.56
2022-12-25T17:59:00.890Z,101108.44
2022-12-25T18:01:28.875Z,101101.53
2022-12-25T18:03:56.003Z,101098.91
2022-12-25T18:06:25.979Z,101090.22
2022-12-25T18:08:54.722Z,101092.84
2022-12-25T18:11:24.009Z,101084.16
2022-12-25T18:13:52.299Z,101078.09
2022-12-25T18:16:22.121Z,101076.59
2022-12-25T18:18:52.275Z,101082.03
2022-12-25T18:21:20.826Z,101082.03
2022-12-25T18:23:47.741Z,101068.09
2022-12-25T18:26:14.909Z,101066.59
2022-12-25T18:28:43.758Z,101064.00
2022-12-25T18:31:13.777Z,101077.91
2022-12-25T18:33:40.973Z,101081.34
2022-12-25T18:36:14.985Z,101085.78
2022-12-25T18:38:41.826Z,101088.28
2022-12-25T18:41:09.335Z,101085.66
2022-12-25T18:43:53.158Z,101080.41
2022-12-25T18:46:27.267Z,101081.34
2022-12-25T18:48:57.234Z,101096.13
2022-12-25T18:51:24.810Z,101092.84
2022-12-25T18:53:51.795Z,101094.47
2022-12-25T18:56:18.859Z,101095.28
2022-12-25T18:58:46.214Z,101087.41
2022-12-25T19:01:18.902Z,101088.41
2022-12-25T19:03:46.352Z,101083.97
2022-12-25T19:06:21.339Z,101082.34
2022-12-25T19:08:48.518Z,101081.34
2022-12-25T19:11:15.740Z,101078.72
2022-12-25T19:13:43.018Z,101083.16
2022-12-25T19:16:10.189Z,101082.34
2022-12-25T19:18:37.897Z,101078.09
2022-12-25T19:21:07.032Z,101078.25
2022-12-25T19:23:35.079Z,101067.75
2022-12-25T19:26:04.751Z,101066.94
2022-12-25T19:28:31.440Z,101078.25
2022-12-25T19:31:00.574Z,101072.19
2022-12-25T19:33:27.173Z,101073.81
2022-12-25T19:35:53.685Z,101078.09
2022-12-25T19:38:20.400Z,101071.03
2022-12-25T19:41:00.417Z,101079.91
2022-12-25T19:43:36.463Z,101080.53
2022-12-25T19:46:04.663Z,101088.41
2022-12-25T19:48:32.608Z,101092.66
2022-12-25T19:50:59.316Z,101094.47
2022-12-25T19:53:26.743Z,101094.47
2022-12-25T19:55:53.877Z,101097.91
2022-12-25T19:58:22.398Z,101095.97
2022-12-25T20:01:05.119Z,101101.38
2022-12-25T20:03:33.048Z,101098.75
2022-12-25T20:06:00.103Z,101098.75
2022-12-25T20:08:26.604Z,101089.91
2022-12-25T20:10:53.147Z,101095.16
2022-12-25T20:13:20.253Z,101100.41
2022-12-25T20:15:47.458Z,101108.25
2022-12-25T20:18:14.474Z,101095.97
2022-12-25T20:20:41.073Z,101094.16
2022-12-25T20:23:08.145Z,101094.16
2022-12-25T20:25:34.699Z,101099.25
2022-12-25T20:28:01.288Z,101102.69
2022-12-25T20:30:27.755Z,101102.69
2022-12-25T20:32:55.303Z,101097.44
2022-12-25T20:35:21.801Z,101091.38
2022-12-25T20:37:48.334Z,101096.44
2022-12-25T20:40:15.016Z,101094.63
2022-12-25T20:42:43.270Z,101098.09
2022-12-25T20:45:12.405Z,101098.09
2022-12-25T20:47:38.969Z,101094.63
2022-12-25T20:50:06.562Z,101094.47
2022-12-25T20:52:33.039Z,101098.91
2022-12-25T20:54:59.689Z,101112.84
2022-12-25T20:57:26.297Z,101105.81
2022-12-25T20:59:53.558Z,101103.19
2022-12-25T21:02:34.136Z,101101.38
2022-12-25T21:05:04.331Z,101105.63
2022-12-25T21:07:30.824Z,101116.13
2022-12-25T21:09:57.370Z,101113.69
2022-12-25T21:12:23.872Z,101116.31
2022-12-25T21:14:50.811Z,101109.25
2022-12-25T21:17:17.659Z,101115.31
2022-12-25T21:19:44.294Z,101116.94
2022-12-25T21:22:10.896Z,101123.00
2022-12-25T21:24:37.441Z,101119.41
2022-12-25T21:27:04.073Z,101116.78
2022-12-25T21:29:30.882Z,101125.47
2022-12-25T21:32:16.119Z,101117.59
2022-12-25T21:34:42.747Z,101127.28
2022-12-25T21:37:09.542Z,101130.72
2022-12-25T21:39:36.096Z,101143.66
2022-12-25T21:42:04.595Z,101143.66
2022-12-25T21:44:31.204Z,101149.75
2022-12-25T21:46:57.739Z,101152.22
2022-12-25T21:49:42.928Z,101145.16
2022-12-25T21:52:09.554Z,101149.41
2022-12-25T21:54:36.521Z,101146.78
2022-12-25T21:57:03.562Z,101149.41
2022-12-25T21:59:30.153Z,101145.66
2022-12-25T22:01:56.830Z,101148.28
2022-12-25T22:04:23.778Z,101150.91
2022-12-25T22:07:09.287Z,101154.34
2022-12-25T22:09:35.961Z,101159.41
2022-12-25T22:12:22.113Z,101156.78
2022-12-25T22:14:56.684Z,101144.66
2022-12-25T22:17:47.658Z,101155.00
2022-12-25T22:20:27.291Z,101158.44
2022-12-25T22:22:54.747Z,101160.91
2022-12-25T22:25:21.581Z,101161.75
2022-12-25T22:27:48.738Z,101156.50
2022-12-25T22:30:18.827Z,101158.28
2022-12-25T22:32:46.318Z,101173.22
2022-12-25T22:35:14.138Z,101163.53
2022-12-25T22:37:42.519Z,101157.31
2022-12-25T22:40:12.504Z,101143.22
2022-12-25T22:42:39.191Z,101140.59
2022-12-25T22:45:06.362Z,101138.59
2022-12-25T22:47:33.151Z,101134.34
2022-12-25T22:49:59.822Z,101133.53
2022-12-25T22:52:26.456Z,101141.56
2022-12-25T22:54:52.989Z,101136.16
2022-12-25T22:57:19.664Z,101116.13
2022-12-25T22:59:46.269Z,101129.91
2022-12-25T23:02:13.057Z,101136.97
2022-12-25T23:04:39.719Z,101140.41
2022-12-25T23:07:06.270Z,101155.16
2022-12-25T23:09:32.858Z,101141.22
2022-12-25T23:11:59.652Z,101145.47
2022-12-25T23:14:39.405Z,101147.16
2022-12-25T23:17:30.556Z,101141.09
2022-12-25T23:20:17.549Z,101133.84
2022-12-25T23:23:02.808Z,101131.22
2022-12-25T23:25:48.140Z,101120.72
2022-12-25T23:28:14.726Z,101105.16
2022-12-25T23:30:41.187Z,101107.59
2022-12-25T23:33:07.666Z,101118.28
2022-12-25T23:35:34.271Z,101118.91
2022-12-25T23:38:00.788Z,101124.34
2022-12-25T23:40:27.241Z,101152.22
2022-12-25T23:42:53.787Z,101149.59
2022-12-25T23:45:20.268Z,101148.59
2022-12-25T23:47:46.687Z,101156.47
2022-12-25T23:50:13.224Z,101152.88
2022-12-25T23:52:39.928Z,101144.84
2022-12-25T23:55:07.123Z,101148.44
2022-12-25T23:57:33.698Z,101148.28
